Overview Statistics Trail Chart Weather Telemetry Raw packets
 

This is the latest recevied weather packets stored in our database for station/object DM8MH-13. If no packets are shown the sender has not sent any weather packets the latest 10 day(s).

<< 10 11 12 13 14 15 16 >>
Time Temp. Humidity Pressure Rain* Wind** Luminosity Snow
1788524473 25.56° C 67% 1009.2 hPa 0 mm - 396 W/m² -
1788523871 25.56° C 67% 1009.5 hPa 0 mm - 237 W/m² -
1788523271 25.56° C 67% 1009.6 hPa 0 mm - 602 W/m² -
1788522671 25.56° C 67% 1009.7 hPa 0 mm - 309 W/m² -
1788522071 25° C 68% 1009.7 hPa 0 mm - 466 W/m² -
1788521472 25° C 69% 1009.7 hPa 0 mm - 675 W/m² -
1788520872 24.44° C 71% 1010 hPa 0 mm - 292 W/m² -
1788520271 24.44° C 71% 1010 hPa 0 mm - 173 W/m² -
1788519671 24.44° C 71% 1010.1 hPa 0 mm - 166 W/m² -
1788519070 24.44° C 72% 1010.4 hPa 0 mm - 220 W/m² -
1788518470 24.44° C 72% 1010.5 hPa 0 mm - 285 W/m² -
1788517871 24.44° C 71% 1010.7 hPa 0 mm - 246 W/m² -
1788517271 24.44° C 72% 1010.6 hPa 0 mm - 613 W/m² -
1788516671 23.89° C 73% 1010.8 hPa 0 mm - 293 W/m² -
1788516070 23.89° C 73% 1010.9 hPa 0 mm - 609 W/m² -
1788515470 23.89° C 73% 1011.2 hPa 0 mm - 367 W/m² -
1788514870 23.33° C 73% 1011.1 hPa 0 mm - 423 W/m² -
1788514270 23.33° C 73% 1011.1 hPa 0 mm - 280 W/m² -
1788513671 23.89° C 73% 1011.2 hPa 0 mm - 304 W/m² -
1788513071 23.33° C 74% 1011.4 hPa 0 mm - 376 W/m² -
1788512470 22.78° C 75% 1011.5 hPa 0 mm - 339 W/m² -
1788511870 22.78° C 76% 1011.8 hPa 0 mm - 197 W/m² -
1788511270 22.22° C 77% 1011.9 hPa 0 mm - 152 W/m² -
1788510671 22.22° C 78% 1012 hPa 0 mm - 165 W/m² -
1788510076 21.67° C 78% 1012.1 hPa 0 mm - 108 W/m² -

* Rain latest hour (hover to see other rain measurements)
** Current wind speed in m/s (hover to see current wind gust speed)